weather.gov     
National Weather Service

Terminal Aerodrome Forecast
NWS Homepage
This page is being discontinued on March 12, 2014.
The same data is available at this site. Please update your bookmarks.
Thank you, and we apologize for the inconvenience.
Please send an email to SR-SRH.Webmaster@noaa.gov with any concerns.


Current Version
Previous Version:    01  02  03  04  05  06  07  08  09  10  11  12  13  14  15  16  17  18  19  20  21  22  23  24  25  26  27  28  29  30  
   31  32  33  34  35  36  37  38  39  40  41  42  43  44  45  
[Printable]
522
FTUS41 KBOX 011138
TAFBOS
TAF
KBOS 011138Z 0112/0218 26006KT P6SM FEW012 BKN200
     FM011400 24007KT P6SM SCT050 BKN250
     FM011700 21006KT P6SM BKN060
     FM020900 23005KT 5SM BR BKN070
     FM021200 24004KT 2SM BR BKN250
     FM021500 21006KT P6SM BKN040
     FM021600 20006KT P6SM SCT040=




522
FTUS41 KBOX 011138
TAFBOS
TAF
KBOS 011138Z 0112/0218 26006KT P6SM FEW012 BKN200
     FM011400 24007KT P6SM SCT050 BKN250
     FM011700 21006KT P6SM BKN060
     FM020900 23005KT 5SM BR BKN070
     FM021200 24004KT 2SM BR BKN250
     FM021500 21006KT P6SM BKN040
     FM021600 20006KT P6SM SCT040=


U.S. Dept. of Commerce
NOAA National Weather Service
1325 East West Highway
Silver Spring, MD 20910
E-mail: w-nws.webmaster@noaa.gov
Page last modified: May 16, 2007
NATIONAL WEATHER SERVICE: for Safety, for Work, for Fun - FOR LIFE